メインページ
METAR-TAF:

METAR-TAF

空港 :

霞目駐屯地

霞の目, 日本

緯度: 38-14N, 経度: 140-55E, 海抜: 7m

現時点の気象観測

当レポートは3時間52分前の05:39(UTC)に作成
西/北西の風 7kt
気温 7°C
湿度 49%
気圧 1020 hPa
視程10km以上
高度1200ftの雲はほとんどない
高度4000ftの雲は散在している

METAR: RJSU 130539Z 29007KT 9999 FEW012 SCT040 07/M03 Q1020 RMK 1ST012 3CU040 A3012

時間: 18:31 (09:31 UTC)


TAF: 見つかりません

4,000以上の空港の気象観測と天気予報(METAR報とTAF報)

利用可能な観測所は地図上に黄色い丸と赤い丸で示す。

丸の上にカーソルを重ねると観測所名を参照できる。

次にクリックすると気象観測と天気予報を参照できる。

マップの切り替え:黒色「×」印の緑ボタンをクリックして拡大、「-」印の緑ボタンをクリックして縮小、緑色の三角印をクリックして隣りの地図に切り替え


METAR-TAF: